createdAt,value
2022-12-19T05:02:49.021Z,42.70
2022-12-19T05:07:00.629Z,38.23
2022-12-19T05:11:19.490Z,39.33
2022-12-19T05:15:31.420Z,42.77
2022-12-19T05:19:42.866Z,46.03
2022-12-19T05:23:55.423Z,40.00
2022-12-19T05:28:06.945Z,41.03
2022-12-19T05:32:18.409Z,40.53
2022-12-19T05:36:32.593Z,41.30
2022-12-19T05:40:44.270Z,39.93
2022-12-19T05:44:55.739Z,44.33
2022-12-19T05:49:07.240Z,40.80
2022-12-19T05:53:21.960Z,42.23
2022-12-19T05:57:37.347Z,38.20
2022-12-19T06:01:48.865Z,36.30
2022-12-19T06:06:05.246Z,42.20
2022-12-19T06:10:16.801Z,41.17
2022-12-19T06:14:28.241Z,45.20
2022-12-19T06:18:44.492Z,54.57
2022-12-19T06:22:56.764Z,42.00
2022-12-19T06:27:08.278Z,41.33
2022-12-19T06:31:22.405Z,54.53
2022-12-19T06:35:34.295Z,47.93
2022-12-19T06:39:46.168Z,39.93
2022-12-19T06:44:01.987Z,36.10
2022-12-19T06:48:13.496Z,43.90
2022-12-19T06:52:25.801Z,43.53
2022-12-19T06:56:39.100Z,38.57
2022-12-19T07:00:50.897Z,45.33
2022-12-19T07:05:06.361Z,41.17
2022-12-19T07:09:18.392Z,41.00
2022-12-19T07:13:30.007Z,41.70
2022-12-19T07:17:41.918Z,41.67
2022-12-19T07:21:55.106Z,37.47
2022-12-19T07:26:06.813Z,43.73
2022-12-19T07:30:18.460Z,36.37
2022-12-19T07:34:30.178Z,42.37
2022-12-19T07:38:41.651Z,40.40
2022-12-19T07:42:53.115Z,43.10
2022-12-19T07:47:04.771Z,41.00
2022-12-19T07:51:16.268Z,43.23
2022-12-19T07:55:28.489Z,47.87
2022-12-19T07:59:39.915Z,43.47
2022-12-19T08:03:51.381Z,39.70
2022-12-19T08:08:03.198Z,43.00
2022-12-19T08:12:14.658Z,46.30
2022-12-19T08:16:27.545Z,41.67
2022-12-19T08:20:39.004Z,46.57
2022-12-19T08:24:50.660Z,40.97
2022-12-19T08:29:02.163Z,43.73
2022-12-19T08:33:13.648Z,38.97
2022-12-19T08:37:25.084Z,42.83
2022-12-19T08:41:36.904Z,45.27
2022-12-19T08:45:49.333Z,41.07
2022-12-19T08:50:01.062Z,42.70
2022-12-19T08:54:12.753Z,41.73
2022-12-19T08:58:25.603Z,39.57
2022-12-19T09:02:37.334Z,44.90
2022-12-19T09:06:49.099Z,45.43
2022-12-19T09:11:02.461Z,44.87
2022-12-19T09:15:14.092Z,46.63
2022-12-19T09:19:25.616Z,40.30
2022-12-19T09:23:37.330Z,43.13
2022-12-19T09:28:25.593Z,40.23
2022-12-19T09:32:20.327Z,46.10
2022-12-19T09:36:31.926Z,42.13
2022-12-19T09:41:01.676Z,38.60
2022-12-19T09:45:32.130Z,43.03
2022-12-19T09:49:46.520Z,39.93
2022-12-19T09:54:19.108Z,37.33
2022-12-19T09:58:47.313Z,37.63
2022-12-19T10:03:39.719Z,37.67
2022-12-19T10:08:09.646Z,39.43
2022-12-19T10:12:51.240Z,40.57
2022-12-19T10:17:29.991Z,51.67
2022-12-19T10:22:20.601Z,41.60
2022-12-19T10:26:50.460Z,43.40
2022-12-19T10:31:22.330Z,39.53
2022-12-19T10:35:37.533Z,41.00
2022-12-19T10:40:25.597Z,42.47
2022-12-19T10:44:43.941Z,42.63
2022-12-19T10:48:55.485Z,46.53
2022-12-19T10:53:13.030Z,44.97
2022-12-19T10:57:49.960Z,40.90
2022-12-19T11:02:29.082Z,41.40
2022-12-19T11:06:40.821Z,40.40
2022-12-19T11:14:44.015Z,44.43
2022-12-19T11:22:22.130Z,46.50
2022-12-19T11:29:41.075Z,42.60
2022-12-19T11:29:43.816Z,43.73
2022-12-19T11:34:23.787Z,42.77
2022-12-19T11:38:49.037Z,47.30
2022-12-19T11:43:43.355Z,42.23
2022-12-19T11:47:51.876Z,41.90
2022-12-19T11:57:13.079Z,44.07
2022-12-19T12:02:00.677Z,48.27
2022-12-19T12:06:17.667Z,42.97
2022-12-19T12:15:26.065Z,44.03
2022-12-19T12:28:22.154Z,42.77
2022-12-19T12:31:21.173Z,41.17
2022-12-19T12:31:41.882Z,43.93
2022-12-19T12:31:53.742Z,38.97
2022-12-19T12:35:51.083Z,46.67
2022-12-19T12:40:23.628Z,40.83
2022-12-19T12:44:43.092Z,46.87
2022-12-19T12:49:06.691Z,45.13
2022-12-19T12:53:24.247Z,44.33
2022-12-19T12:57:37.858Z,51.33
2022-12-19T13:01:56.926Z,46.43
2022-12-19T13:06:26.970Z,43.80
2022-12-19T13:10:40.082Z,45.37
2022-12-19T13:14:52.319Z,45.90
2022-12-19T13:19:27.798Z,40.70
2022-12-19T13:23:46.415Z,41.43
2022-12-19T13:28:13.193Z,43.07
2022-12-19T13:32:25.067Z,43.87
2022-12-19T13:40:02.344Z,43.87
2022-12-19T13:42:29.091Z,45.70
2022-12-19T13:46:43.653Z,45.23
2022-12-19T13:50:56.617Z,45.77
2022-12-19T13:55:14.850Z,48.80
2022-12-19T13:59:31.972Z,47.50
2022-12-19T14:03:46.408Z,45.07
2022-12-19T14:07:59.085Z,45.40
2022-12-19T14:14:00.888Z,43.60
2022-12-19T14:17:14.826Z,45.93
2022-12-19T14:22:10.398Z,47.70
2022-12-19T14:28:19.305Z,45.77
2022-12-19T14:30:35.378Z,46.50
2022-12-19T14:36:08.363Z,50.10
2022-12-19T14:39:29.331Z,49.17
2022-12-19T14:43:59.873Z,48.53
2022-12-19T14:54:17.514Z,53.57
2022-12-19T14:54:40.844Z,45.37
2022-12-19T14:58:54.462Z,40.33
2022-12-19T15:02:33.931Z,45.90
2022-12-19T15:07:08.077Z,43.97
2022-12-19T15:11:53.609Z,39.20
2022-12-19T15:16:31.470Z,37.17
2022-12-19T15:20:43.065Z,37.53
2022-12-19T15:24:54.552Z,40.37
2022-12-19T15:29:22.353Z,41.83
2022-12-19T15:33:53.911Z,38.50
2022-12-19T15:38:15.392Z,38.53
2022-12-19T15:42:34.824Z,36.40
2022-12-19T15:46:49.344Z,49.07
2022-12-19T15:51:01.061Z,51.67
2022-12-19T15:55:16.855Z,54.10
2022-12-19T15:59:37.327Z,54.87
2022-12-19T16:03:50.431Z,57.70
2022-12-19T16:08:02.109Z,56.83
2022-12-19T16:12:16.708Z,52.97
2022-12-19T16:16:29.580Z,55.63
2022-12-19T16:20:41.645Z,55.23
2022-12-19T16:24:55.168Z,55.60
2022-12-19T16:29:19.110Z,55.57
2022-12-19T16:33:31.118Z,58.93
2022-12-19T16:37:42.699Z,59.90
2022-12-19T16:41:54.196Z,57.70
2022-12-19T16:46:08.576Z,76.03
2022-12-19T16:50:27.216Z,68.10
2022-12-19T16:54:38.795Z,62.47
2022-12-19T16:58:51.633Z,60.57
2022-12-19T17:03:09.378Z,64.97
2022-12-19T17:07:21.148Z,61.10
2022-12-19T17:11:32.889Z,70.43
2022-12-19T17:15:48.538Z,63.50
2022-12-19T17:20:02.691Z,64.70
2022-12-19T17:24:15.647Z,66.67
2022-12-19T17:28:29.242Z,63.23
2022-12-19T17:32:41.353Z,86.07
2022-12-19T17:36:52.933Z,69.30
2022-12-19T17:41:04.581Z,68.50
2022-12-19T17:45:17.058Z,66.70
2022-12-19T17:49:31.191Z,62.50
2022-12-19T17:53:42.629Z,66.00
2022-12-19T17:57:54.888Z,59.57
2022-12-19T18:02:20.215Z,60.33
2022-12-19T18:06:31.856Z,56.80
2022-12-19T18:10:43.419Z,66.43
2022-12-19T18:14:54.919Z,55.73
2022-12-19T18:19:07.175Z,52.33
2022-12-19T18:23:21.518Z,51.10
2022-12-19T18:27:33.032Z,60.77
2022-12-19T18:31:50.454Z,59.57
2022-12-19T18:36:03.013Z,50.03
2022-12-19T18:40:29.280Z,43.90
2022-12-19T18:44:42.704Z,45.67
2022-12-19T18:48:54.325Z,44.70
2022-12-19T18:53:17.583Z,38.93
2022-12-19T18:57:29.031Z,47.17
2022-12-19T19:01:46.914Z,47.17
2022-12-19T19:05:58.945Z,46.43
2022-12-19T19:10:27.558Z,47.97
2022-12-19T19:14:52.726Z,47.87
2022-12-19T19:19:07.195Z,40.97
2022-12-19T19:23:22.006Z,36.97
2022-12-19T19:27:33.692Z,30.27
2022-12-19T19:31:49.934Z,20.53
2022-12-19T19:36:11.755Z,14.20
2022-12-19T19:40:24.573Z,15.23
2022-12-19T19:44:36.117Z,22.83
2022-12-19T19:48:47.675Z,38.53
2022-12-19T19:52:59.507Z,51.07
2022-12-19T19:57:11.111Z,44.73
2022-12-19T20:01:22.808Z,36.60
2022-12-19T20:05:34.495Z,23.07
2022-12-19T20:09:46.338Z,13.87
2022-12-19T20:13:57.942Z,8.37
2022-12-19T20:18:09.532Z,5.93
2022-12-19T20:22:21.410Z,9.27
2022-12-19T20:26:33.021Z,7.13
2022-12-19T20:30:45.310Z,7.25
2022-12-19T20:34:56.932Z,5.75
2022-12-19T20:39:09.399Z,6.32
2022-12-19T20:43:20.970Z,5.85
2022-12-19T20:47:32.939Z,5.13
2022-12-19T20:51:47.126Z,6.55
2022-12-19T20:56:00.294Z,4.45
2022-12-19T21:00:14.679Z,4.25
2022-12-19T21:04:26.569Z,5.35
2022-12-19T21:08:38.754Z,4.72
2022-12-19T21:12:50.366Z,5.75
2022-12-19T21:17:02.029Z,3.03
2022-12-19T21:21:17.575Z,6.25
2022-12-19T21:25:29.415Z,4.10
2022-12-19T21:35:42.061Z,2.92
2022-12-19T21:39:53.584Z,2.80
2022-12-19T21:44:05.219Z,2.78
2022-12-19T21:48:17.048Z,3.03
2022-12-19T21:52:28.813Z,3.25
2022-12-19T21:56:40.954Z,2.90
2022-12-19T22:00:52.726Z,3.78
2022-12-19T22:05:05.576Z,2.65
2022-12-19T22:09:19.782Z,6.03
2022-12-19T22:13:31.413Z,2.65
2022-12-19T22:17:43.923Z,4.43
2022-12-19T22:21:55.506Z,5.05
2022-12-19T22:26:08.452Z,3.03
